sensor_id;sensor_type;location;lat;lon;timestamp;pressure;altitude;pressure_sealevel;temperature;humidity
69171;BME280;56279;47.902;12.308;2022-09-28T00:00:18;94066.47;;;8.62;86.84
69171;BME280;56279;47.902;12.308;2022-09-28T00:02:20;94064.72;;;8.58;87.30
69171;BME280;56279;47.902;12.308;2022-09-28T00:04:21;94063.16;;;8.57;87.21
69171;BME280;56279;47.902;12.308;2022-09-28T00:06:24;94059.00;;;8.56;86.93
69171;BME280;56279;47.902;12.308;2022-09-28T00:08:28;94049.25;;;8.56;87.03
69171;BME280;56279;47.902;12.308;2022-09-28T00:10:29;94056.06;;;8.57;87.54
69171;BME280;56279;47.902;12.308;2022-09-28T00:12:31;94050.00;;;8.57;87.27
69171;BME280;56279;47.902;12.308;2022-09-28T00:14:33;94054.22;;;8.58;87.44
69171;BME280;56279;47.902;12.308;2022-09-28T00:16:41;94048.66;;;8.59;87.37
69171;BME280;56279;47.902;12.308;2022-09-28T00:18:43;94043.38;;;8.59;87.67
69171;BME280;56279;47.902;12.308;2022-09-28T00:20:45;94039.22;;;8.58;88.07
69171;BME280;56279;47.902;12.308;2022-09-28T00:22:46;94045.25;;;8.59;87.85
69171;BME280;56279;47.902;12.308;2022-09-28T00:24:48;94046.63;;;8.56;87.77
69171;BME280;56279;47.902;12.308;2022-09-28T00:26:53;94043.50;;;8.54;87.98
69171;BME280;56279;47.902;12.308;2022-09-28T00:28:57;94034.06;;;8.53;88.41
69171;BME280;56279;47.902;12.308;2022-09-28T00:30:59;94030.34;;;8.54;88.06
69171;BME280;56279;47.902;12.308;2022-09-28T00:33:01;94024.81;;;8.56;88.13
69171;BME280;56279;47.902;12.308;2022-09-28T00:35:02;94013.50;;;8.55;88.37
69171;BME280;56279;47.902;12.308;2022-09-28T00:37:04;94023.44;;;8.58;88.23
69171;BME280;56279;47.902;12.308;2022-09-28T00:39:07;94017.41;;;8.58;88.75
69171;BME280;56279;47.902;12.308;2022-09-28T00:41:11;94014.00;;;8.57;88.15
69171;BME280;56279;47.902;12.308;2022-09-28T00:43:17;94013.72;;;8.59;88.21
69171;BME280;56279;47.902;12.308;2022-09-28T00:45:19;94017.88;;;8.60;88.72
69171;BME280;56279;47.902;12.308;2022-09-28T00:49:39;94004.94;;;8.63;88.78
69171;BME280;56279;47.902;12.308;2022-09-28T00:51:42;94004.31;;;8.66;88.89
69171;BME280;56279;47.902;12.308;2022-09-28T00:53:47;94011.94;;;8.68;88.65
69171;BME280;56279;47.902;12.308;2022-09-28T00:55:55;94013.94;;;8.71;88.70
69171;BME280;56279;47.902;12.308;2022-09-28T00:58:02;93997.88;;;8.72;88.96
69171;BME280;56279;47.902;12.308;2022-09-28T01:00:05;94007.31;;;8.73;89.04
69171;BME280;56279;47.902;12.308;2022-09-28T01:02:07;93994.94;;;8.74;88.78
69171;BME280;56279;47.902;12.308;2022-09-28T01:04:10;94000.69;;;8.76;89.30
69171;BME280;56279;47.902;12.308;2022-09-28T01:06:24;93989.69;;;8.74;89.00
69171;BME280;56279;47.902;12.308;2022-09-28T01:08:29;93977.81;;;8.76;88.95
69171;BME280;56279;47.902;12.308;2022-09-28T01:10:32;93969.91;;;8.76;88.89
69171;BME280;56279;47.902;12.308;2022-09-28T01:12:34;93962.03;;;8.76;89.21
69171;BME280;56279;47.902;12.308;2022-09-28T01:14:36;93960.44;;;8.75;89.27
69171;BME280;56279;47.902;12.308;2022-09-28T01:16:40;93948.88;;;8.76;89.37
69171;BME280;56279;47.902;12.308;2022-09-28T01:19:23;93941.56;;;8.73;89.00
69171;BME280;56279;47.902;12.308;2022-09-28T01:21:33;93948.19;;;8.71;89.54
69171;BME280;56279;47.902;12.308;2022-09-28T01:28:44;93923.09;;;8.65;89.56
69171;BME280;56279;47.902;12.308;2022-09-28T01:31:11;93928.66;;;8.63;89.38
69171;BME280;56279;47.902;12.308;2022-09-28T01:33:19;93927.88;;;8.63;89.54
69171;BME280;56279;47.902;12.308;2022-09-28T01:35:28;93930.53;;;8.63;89.42
69171;BME280;56279;47.902;12.308;2022-09-28T01:39:48;93931.31;;;8.63;89.54
69171;BME280;56279;47.902;12.308;2022-09-28T01:41:53;93926.03;;;8.63;89.22
69171;BME280;56279;47.902;12.308;2022-09-28T01:43:59;93924.16;;;8.64;89.59
69171;BME280;56279;47.902;12.308;2022-09-28T01:48:09;93924.66;;;8.66;89.64
69171;BME280;56279;47.902;12.308;2022-09-28T01:50:16;93922.03;;;8.66;89.65
69171;BME280;56279;47.902;12.308;2022-09-28T01:52:28;93924.38;;;8.67;89.55
69171;BME280;56279;47.902;12.308;2022-09-28T01:54:40;93926.22;;;8.67;89.39
69171;BME280;56279;47.902;12.308;2022-09-28T01:58:58;93907.31;;;8.65;89.42
69171;BME280;56279;47.902;12.308;2022-09-28T02:01:37;93907.31;;;8.65;89.50
69171;BME280;56279;47.902;12.308;2022-09-28T02:03:43;93893.88;;;8.66;89.20
69171;BME280;56279;47.902;12.308;2022-09-28T02:05:53;93896.81;;;8.65;89.32
69171;BME280;56279;47.902;12.308;2022-09-28T02:08:02;93884.72;;;8.64;89.58
69171;BME280;56279;47.902;12.308;2022-09-28T02:10:13;93883.19;;;8.63;89.20
69171;BME280;56279;47.902;12.308;2022-09-28T02:12:31;93889.50;;;8.62;89.44
69171;BME280;56279;47.902;12.308;2022-09-28T02:14:33;93886.88;;;8.62;89.53
69171;BME280;56279;47.902;12.308;2022-09-28T02:16:43;93867.41;;;8.63;89.62
69171;BME280;56279;47.902;12.308;2022-09-28T02:18:46;93867.41;;;8.63;89.77
69171;BME280;56279;47.902;12.308;2022-09-28T02:21:00;93860.59;;;8.62;89.02
69171;BME280;56279;47.902;12.308;2022-09-28T02:23:06;93851.63;;;8.63;89.56
69171;BME280;56279;47.902;12.308;2022-09-28T02:25:31;93854.53;;;8.61;89.51
69171;BME280;56279;47.902;12.308;2022-09-28T02:27:42;93844.81;;;8.62;89.40
69171;BME280;56279;47.902;12.308;2022-09-28T02:29:47;93838.50;;;8.63;89.30
69171;BME280;56279;47.902;12.308;2022-09-28T02:31:50;93836.91;;;8.62;89.60
69171;BME280;56279;47.902;12.308;2022-09-28T02:33:54;93836.63;;;8.63;89.54
69171;BME280;56279;47.902;12.308;2022-09-28T02:35:58;93836.63;;;8.63;89.72
69171;BME280;56279;47.902;12.308;2022-09-28T02:38:00;93830.59;;;8.63;89.31
69171;BME280;56279;47.902;12.308;2022-09-28T02:40:07;93831.38;;;8.63;89.48
69171;BME280;56279;47.902;12.308;2022-09-28T02:42:27;93823.78;;;8.62;89.45
69171;BME280;56279;47.902;12.308;2022-09-28T02:49:48;93807.84;;;8.58;89.77
69171;BME280;56279;47.902;12.308;2022-09-28T03:03:45;93775.63;;;8.53;89.94
69171;BME280;56279;47.902;12.308;2022-09-28T03:06:03;93766.47;;;8.50;90.36
69171;BME280;56279;47.902;12.308;2022-09-28T03:08:31;93766.47;;;8.50;90.18
69171;BME280;56279;47.902;12.308;2022-09-28T03:12:57;93754.44;;;8.49;90.06
69171;BME280;56279;47.902;12.308;2022-09-28T03:15:26;93753.19;;;8.47;90.39
69171;BME280;56279;47.902;12.308;2022-09-28T03:17:29;93745.28;;;8.47;90.49
69171;BME280;56279;47.902;12.308;2022-09-28T03:19:32;93744.81;;;8.45;90.61
69171;BME280;56279;47.902;12.308;2022-09-28T03:21:34;93736.44;;;8.43;90.61
69171;BME280;56279;47.902;12.308;2022-09-28T03:23:36;93735.69;;;8.42;90.39
69171;BME280;56279;47.902;12.308;2022-09-28T03:25:38;93723.13;;;8.39;90.61
69171;BME280;56279;47.902;12.308;2022-09-28T03:27:39;93717.69;;;8.35;90.83
69171;BME280;56279;47.902;12.308;2022-09-28T03:29:41;93728.06;;;8.32;90.27
69171;BME280;56279;47.902;12.308;2022-09-28T03:31:43;93728.16;;;8.27;90.59
69171;BME280;56279;47.902;12.308;2022-09-28T03:33:45;93720.38;;;8.22;90.62
69171;BME280;56279;47.902;12.308;2022-09-28T03:35:48;93723.91;;;8.17;90.43
69171;BME280;56279;47.902;12.308;2022-09-28T03:37:56;93718.63;;;8.09;90.38
69171;BME280;56279;47.902;12.308;2022-09-28T03:40:00;93722.41;;;8.03;90.61
69171;BME280;56279;47.902;12.308;2022-09-28T03:42:01;93718.38;;;7.97;90.93
69171;BME280;56279;47.902;12.308;2022-09-28T03:44:06;93709.06;;;7.91;91.22
69171;BME280;56279;47.902;12.308;2022-09-28T03:46:08;93708.09;;;7.87;91.01
69171;BME280;56279;47.902;12.308;2022-09-28T03:48:15;93695.88;;;7.82;91.29
69171;BME280;56279;47.902;12.308;2022-09-28T03:50:17;93690.72;;;7.77;91.09
69171;BME280;56279;47.902;12.308;2022-09-28T03:52:18;93688.25;;;7.72;91.38
69171;BME280;56279;47.902;12.308;2022-09-28T03:54:20;93682.03;;;7.68;91.56
69171;BME280;56279;47.902;12.308;2022-09-28T03:56:21;93679.25;;;7.64;91.41
69171;BME280;56279;47.902;12.308;2022-09-28T03:58:22;93680.28;;;7.63;92.04
69171;BME280;56279;47.902;12.308;2022-09-28T04:00:24;93670.88;;;7.62;91.78
69171;BME280;56279;47.902;12.308;2022-09-28T04:02:26;93670.09;;;7.62;91.66
69171;BME280;56279;47.902;12.308;2022-09-28T04:04:28;93664.06;;;7.61;91.58
69171;BME280;56279;47.902;12.308;2022-09-28T04:06:30;93664.38;;;7.60;92.00
69171;BME280;56279;47.902;12.308;2022-09-28T04:08:32;93665.16;;;7.60;91.61
69171;BME280;56279;47.902;12.308;2022-09-28T04:10:33;93649.56;;;7.64;91.57
69171;BME280;56279;47.902;12.308;2022-09-28T04:12:35;93646.84;;;7.69;91.58
69171;BME280;56279;47.902;12.308;2022-09-28T04:14:36;93629.88;;;7.75;91.73
69171;BME280;56279;47.902;12.308;2022-09-28T04:16:39;93629.28;;;7.78;91.78
69171;BME280;56279;47.902;12.308;2022-09-28T04:18:44;93635.19;;;7.84;91.63
69171;BME280;56279;47.902;12.308;2022-09-28T04:21:03;93633.50;;;7.88;91.79
69171;BME280;56279;47.902;12.308;2022-09-28T04:23:09;93624.72;;;7.92;91.47
69171;BME280;56279;47.902;12.308;2022-09-28T04:25:10;93633.53;;;7.96;91.81
69171;BME280;56279;47.902;12.308;2022-09-28T04:27:12;93636.84;;;8.02;91.24
69171;BME280;56279;47.902;12.308;2022-09-28T04:29:31;93630.19;;;8.04;91.50
69171;BME280;56279;47.902;12.308;2022-09-28T04:33:43;93622.34;;;8.13;91.26
69171;BME280;56279;47.902;12.308;2022-09-28T04:35:44;93615.72;;;8.15;91.15
69171;BME280;56279;47.902;12.308;2022-09-28T04:37:46;93618.53;;;8.19;91.23
69171;BME280;56279;47.902;12.308;2022-09-28T04:39:47;93626.09;;;8.20;91.57
69171;BME280;56279;47.902;12.308;2022-09-28T04:41:51;93648.38;;;8.23;91.45
69171;BME280;56279;47.902;12.308;2022-09-28T04:43:52;93655.16;;;8.24;91.27
69171;BME280;56279;47.902;12.308;2022-09-28T04:45:58;93656.44;;;8.26;90.96
69171;BME280;56279;47.902;12.308;2022-09-28T04:48:05;93648.75;;;8.30;91.12
69171;BME280;56279;47.902;12.308;2022-09-28T04:50:42;93642.69;;;8.29;91.00
69171;BME280;56279;47.902;12.308;2022-09-28T04:52:52;93631.13;;;8.30;90.99
69171;BME280;56279;47.902;12.308;2022-09-28T04:54:53;93650.28;;;8.31;91.16
69171;BME280;56279;47.902;12.308;2022-09-28T04:56:54;93663.13;;;8.32;91.38
69171;BME280;56279;47.902;12.308;2022-09-28T04:58:55;93663.13;;;8.32;91.29
69171;BME280;56279;47.902;12.308;2022-09-28T05:00:59;93654.94;;;8.34;91.20
69171;BME280;56279;47.902;12.308;2022-09-28T05:03:19;93654.63;;;8.35;90.71
69171;BME280;56279;47.902;12.308;2022-09-28T05:05:50;93650.63;;;8.38;91.17
69171;BME280;56279;47.902;12.308;2022-09-28T05:08:14;93659.28;;;8.39;91.36
69171;BME280;56279;47.902;12.308;2022-09-28T05:10:16;93666.56;;;8.42;91.12
69171;BME280;56279;47.902;12.308;2022-09-28T05:12:17;93663.63;;;8.43;90.90
69171;BME280;56279;47.902;12.308;2022-09-28T05:14:19;93665.97;;;8.45;90.74
69171;BME280;56279;47.902;12.308;2022-09-28T05:16:25;93650.19;;;8.45;90.92
69171;BME280;56279;47.902;12.308;2022-09-28T05:18:54;93633.47;;;8.41;91.04
69171;BME280;56279;47.902;12.308;2022-09-28T05:20:56;93649.22;;;8.41;90.85
69171;BME280;56279;47.902;12.308;2022-09-28T05:22:57;93658.38;;;8.43;90.95
69171;BME280;56279;47.902;12.308;2022-09-28T05:24:59;93664.09;;;8.45;91.21
69171;BME280;56279;47.902;12.308;2022-09-28T05:27:07;93668.75;;;8.48;91.36
69171;BME280;56279;47.902;12.308;2022-09-28T05:29:09;93657.63;;;8.51;91.08
69171;BME280;56279;47.902;12.308;2022-09-28T05:31:28;93663.34;;;8.53;91.38
69171;BME280;56279;47.902;12.308;2022-09-28T05:33:42;93664.13;;;8.54;91.12
69171;BME280;56279;47.902;12.308;2022-09-28T05:35:45;93678.66;;;8.51;91.08
69171;BME280;56279;47.902;12.308;2022-09-28T05:37:47;93683.94;;;8.51;91.03
69171;BME280;56279;47.902;12.308;2022-09-28T05:39:48;93676.81;;;8.52;90.73
69171;BME280;56279;47.902;12.308;2022-09-28T05:41:49;93685.19;;;8.54;90.81
69171;BME280;56279;47.902;12.308;2022-09-28T05:43:51;93678.81;;;8.55;90.76
69171;BME280;56279;47.902;12.308;2022-09-28T05:45:53;93676.19;;;8.55;91.13
69171;BME280;56279;47.902;12.308;2022-09-28T05:47:54;93663.81;;;8.55;91.25
69171;BME280;56279;47.902;12.308;2022-09-28T05:49:58;93645.75;;;8.54;91.06
69171;BME280;56279;47.902;12.308;2022-09-28T05:51:59;93646.03;;;8.52;91.47
69171;BME280;56279;47.902;12.308;2022-09-28T05:54:01;93656.25;;;8.54;90.85
69171;BME280;56279;47.902;12.308;2022-09-28T05:56:02;93657.78;;;8.55;91.12
69171;BME280;56279;47.902;12.308;2022-09-28T05:58:07;93651.63;;;8.59;91.08
69171;BME280;56279;47.902;12.308;2022-09-28T06:00:09;93643.13;;;8.62;91.02
69171;BME280;56279;47.902;12.308;2022-09-28T06:02:24;93640.38;;;8.67;90.63
69171;BME280;56279;47.902;12.308;2022-09-28T06:04:25;93634.50;;;8.70;90.54
69171;BME280;56279;47.902;12.308;2022-09-28T06:06:28;93633.88;;;8.73;90.84
69171;BME280;56279;47.902;12.308;2022-09-28T06:08:31;93634.50;;;8.79;90.88
69171;BME280;56279;47.902;12.308;2022-09-28T06:11:11;93632.19;;;8.86;90.46
69171;BME280;56279;47.902;12.308;2022-09-28T06:13:12;93632.06;;;8.91;90.52
69171;BME280;56279;47.902;12.308;2022-09-28T06:15:15;93641.66;;;8.95;90.48
69171;BME280;56279;47.902;12.308;2022-09-28T06:17:18;93636.25;;;9.00;90.66
69171;BME280;56279;47.902;12.308;2022-09-28T06:19:24;93635.78;;;9.07;90.51
69171;BME280;56279;47.902;12.308;2022-09-28T06:21:51;93630.84;;;9.14;90.49
69171;BME280;56279;47.902;12.308;2022-09-28T06:23:52;93623.56;;;9.20;90.17
69171;BME280;56279;47.902;12.308;2022-09-28T06:25:54;93614.72;;;9.24;90.15
69171;BME280;56279;47.902;12.308;2022-09-28T06:28:12;93600.19;;;9.27;90.23
69171;BME280;56279;47.902;12.308;2022-09-28T06:30:13;93591.84;;;9.33;90.08
69171;BME280;56279;47.902;12.308;2022-09-28T06:32:15;93590.13;;;9.37;89.77
69171;BME280;56279;47.902;12.308;2022-09-28T06:34:20;93593.53;;;9.38;89.57
69171;BME280;56279;47.902;12.308;2022-09-28T06:36:22;93605.13;;;9.37;89.56
69171;BME280;56279;47.902;12.308;2022-09-28T06:38:24;93609.63;;;9.36;89.42
69171;BME280;56279;47.902;12.308;2022-09-28T06:40:26;93613.81;;;9.37;89.75
69171;BME280;56279;47.902;12.308;2022-09-28T06:42:28;93611.19;;;9.37;89.18
69171;BME280;56279;47.902;12.308;2022-09-28T06:44:52;93612.91;;;9.33;89.30
69171;BME280;56279;47.902;12.308;2022-09-28T06:47:16;93626.34;;;9.32;89.43
69171;BME280;56279;47.902;12.308;2022-09-28T06:49:37;93631.94;;;9.30;89.65
69171;BME280;56279;47.902;12.308;2022-09-28T06:52:11;93643.25;;;9.31;89.36
69171;BME280;56279;47.902;12.308;2022-09-28T06:54:35;93644.00;;;9.31;89.82
69171;BME280;56279;47.902;12.308;2022-09-28T06:56:48;93659.50;;;9.33;89.84
69171;BME280;56279;47.902;12.308;2022-09-28T06:58:49;93662.91;;;9.33;89.89
69171;BME280;56279;47.902;12.308;2022-09-28T07:00:52;93674.19;;;9.34;90.17
69171;BME280;56279;47.902;12.308;2022-09-28T07:02:54;93677.59;;;9.34;90.17
69171;BME280;56279;47.902;12.308;2022-09-28T07:05:12;93676.81;;;9.34;89.94
69171;BME280;56279;47.902;12.308;2022-09-28T07:07:36;93671.88;;;9.32;89.75
69171;BME280;56279;47.902;12.308;2022-09-28T07:10:00;93684.44;;;9.35;90.10
69171;BME280;56279;47.902;12.308;2022-09-28T07:12:17;93669.09;;;9.37;89.87
69171;BME280;56279;47.902;12.308;2022-09-28T07:14:26;93671.59;;;9.42;89.80
69171;BME280;56279;47.902;12.308;2022-09-28T07:16:28;93665.69;;;9.45;89.48
69171;BME280;56279;47.902;12.308;2022-09-28T07:18:33;93673.75;;;9.49;89.41
69171;BME280;56279;47.902;12.308;2022-09-28T07:20:35;93658.41;;;9.51;89.33
69171;BME280;56279;47.902;12.308;2022-09-28T07:22:37;93658.09;;;9.52;89.50
69171;BME280;56279;47.902;12.308;2022-09-28T07:24:39;93650.03;;;9.57;89.36
69171;BME280;56279;47.902;12.308;2022-09-28T07:27:00;93647.88;;;9.59;89.42
69171;BME280;56279;47.902;12.308;2022-09-28T07:29:17;93648.81;;;9.63;89.36
69171;BME280;56279;47.902;12.308;2022-09-28T07:31:40;93647.56;;;9.69;89.40
69171;BME280;56279;47.902;12.308;2022-09-28T07:34:01;93646.28;;;9.75;89.14
69171;BME280;56279;47.902;12.308;2022-09-28T07:36:07;93648.03;;;9.80;89.46
69171;BME280;56279;47.902;12.308;2022-09-28T07:38:10;93645.66;;;9.87;89.25
69171;BME280;56279;47.902;12.308;2022-09-28T07:40:11;93651.56;;;9.93;89.00
69171;BME280;56279;47.902;12.308;2022-09-28T07:42:31;93663.00;;;9.97;89.08
69171;BME280;56279;47.902;12.308;2022-09-28T07:44:33;93676.66;;;9.99;88.63
69171;BME280;56279;47.902;12.308;2022-09-28T07:46:36;93682.22;;;9.97;88.98
69171;BME280;56279;47.902;12.308;2022-09-28T07:49:04;93699.59;;;9.98;88.92
69171;BME280;56279;47.902;12.308;2022-09-28T07:51:28;93707.81;;;9.97;88.66
69171;BME280;56279;47.902;12.308;2022-09-28T07:53:51;93704.41;;;9.96;89.12
69171;BME280;56279;47.902;12.308;2022-09-28T07:56:17;93703.94;;;9.94;89.16
69171;BME280;56279;47.902;12.308;2022-09-28T07:58:47;93698.66;;;9.94;89.07
69171;BME280;56279;47.902;12.308;2022-09-28T08:01:12;93692.31;;;9.95;89.08
69171;BME280;56279;47.902;12.308;2022-09-28T08:03:20;93699.91;;;9.97;89.32
69171;BME280;56279;47.902;12.308;2022-09-28T08:05:25;93692.47;;;9.99;88.50
69171;BME280;56279;47.902;12.308;2022-09-28T08:07:32;93699.28;;;10.00;88.95
69171;BME280;56279;47.902;12.308;2022-09-28T08:09:38;93699.28;;;10.00;88.85
69171;BME280;56279;47.902;12.308;2022-09-28T08:12:18;93703.03;;;9.99;89.00
69171;BME280;56279;47.902;12.308;2022-09-28T08:14:31;93697.75;;;9.99;89.02
69171;BME280;56279;47.902;12.308;2022-09-28T08:17:05;93696.19;;;9.98;89.25
69171;BME280;56279;47.902;12.308;2022-09-28T08:19:18;93704.88;;;9.98;89.20
69171;BME280;56279;47.902;12.308;2022-09-28T08:21:21;93700.06;;;10.00;89.28
69171;BME280;56279;47.902;12.308;2022-09-28T08:23:42;93705.47;;;10.04;89.50
69171;BME280;56279;47.902;12.308;2022-09-28T08:25:47;93691.53;;;10.03;89.25
69171;BME280;56279;47.902;12.308;2022-09-28T08:27:49;93696.94;;;10.07;89.26
69171;BME280;56279;47.902;12.308;2022-09-28T08:29:50;93694.19;;;10.12;89.57
69171;BME280;56279;47.902;12.308;2022-09-28T08:32:10;93684.38;;;10.21;89.17
69171;BME280;56279;47.902;12.308;2022-09-28T08:34:50;93682.03;;;10.28;89.17
69171;BME280;56279;47.902;12.308;2022-09-28T08:36:58;93679.81;;;10.38;89.06
69171;BME280;56279;47.902;12.308;2022-09-28T08:39:18;93674.22;;;10.49;88.72
69171;BME280;56279;47.902;12.308;2022-09-28T08:42:11;93678.38;;;10.58;88.60
69171;BME280;56279;47.902;12.308;2022-09-28T08:44:52;93679.28;;;10.62;88.25
69171;BME280;56279;47.902;12.308;2022-09-28T08:50:01;93682.97;;;10.70;88.36
69171;BME280;56279;47.902;12.308;2022-09-28T08:52:32;93692.00;;;10.69;88.33
69171;BME280;56279;47.902;12.308;2022-09-28T08:55:20;93690.78;;;10.66;88.24
69171;BME280;56279;47.902;12.308;2022-09-28T08:57:36;93710.00;;;10.67;88.17
69171;BME280;56279;47.902;12.308;2022-09-28T09:02:08;93696.84;;;10.58;88.21
69171;BME280;56279;47.902;12.308;2022-09-28T09:04:13;93704.13;;;10.61;88.50
69171;BME280;56279;47.902;12.308;2022-09-28T09:07:12;93694.31;;;10.70;88.21
69171;BME280;56279;47.902;12.308;2022-09-28T09:09:50;93707.00;;;10.77;88.13
69171;BME280;56279;47.902;12.308;2022-09-28T09:12:12;93707.28;;;10.84;88.21
69171;BME280;56279;47.902;12.308;2022-09-28T09:18:54;93702.97;;;11.08;87.48
69171;BME280;56279;47.902;12.308;2022-09-28T09:23:17;93691.75;;;11.20;87.30
69171;BME280;56279;47.902;12.308;2022-09-28T09:25:26;93708.16;;;11.26;87.17
69171;BME280;56279;47.902;12.308;2022-09-28T09:30:05;93710.09;;;11.37;87.01
69171;BME280;56279;47.902;12.308;2022-09-28T09:32:29;93726.03;;;11.49;86.88
69171;BME280;56279;47.902;12.308;2022-09-28T09:48:19;93719.78;;;11.54;86.15
69171;BME280;56279;47.902;12.308;2022-09-28T09:54:58;93706.66;;;11.87;86.06
69171;BME280;56279;47.902;12.308;2022-09-28T09:57:17;93705.75;;;12.03;85.82
69171;BME280;56279;47.902;12.308;2022-09-28T09:59:36;93705.59;;;12.20;85.39
69171;BME280;56279;47.902;12.308;2022-09-28T10:01:55;93699.81;;;12.39;84.66
69171;BME280;56279;47.902;12.308;2022-09-28T10:04:19;93695.44;;;12.55;84.05
69171;BME280;56279;47.902;12.308;2022-09-28T10:06:34;93687.72;;;12.74;83.78
69171;BME280;56279;47.902;12.308;2022-09-28T10:08:40;93686.97;;;12.86;82.71
69171;BME280;56279;47.902;12.308;2022-09-28T10:10:51;93686.88;;;12.94;82.71
69171;BME280;56279;47.902;12.308;2022-09-28T10:12:55;93683.31;;;13.02;82.94
69171;BME280;56279;47.902;12.308;2022-09-28T10:14:56;93680.91;;;13.09;82.97
69171;BME280;56279;47.902;12.308;2022-09-28T10:17:02;93689.09;;;13.16;82.96
69171;BME280;56279;47.902;12.308;2022-09-28T10:19:33;93695.16;;;13.29;83.19
69171;BME280;56279;47.902;12.308;2022-09-28T10:21:41;93688.72;;;13.42;82.90
69171;BME280;56279;47.902;12.308;2022-09-28T10:23:57;93685.63;;;13.52;82.50
69171;BME280;56279;47.902;12.308;2022-09-28T10:26:06;93684.94;;;13.67;82.52
69171;BME280;56279;47.902;12.308;2022-09-28T10:28:15;93685.22;;;13.78;81.13
69171;BME280;56279;47.902;12.308;2022-09-28T10:30:21;93687.06;;;13.90;81.05
69171;BME280;56279;47.902;12.308;2022-09-28T10:32:36;93699.88;;;14.00;80.47
69171;BME280;56279;47.902;12.308;2022-09-28T10:34:39;93704.66;;;14.10;80.32
69171;BME280;56279;47.902;12.308;2022-09-28T10:38:55;93715.94;;;14.19;79.43
69171;BME280;56279;47.902;12.308;2022-09-28T10:41:09;93721.13;;;14.15;79.61
69171;BME280;56279;47.902;12.308;2022-09-28T10:43:59;93732.09;;;14.14;79.30
69171;BME280;56279;47.902;12.308;2022-09-28T10:46:14;93729.13;;;14.03;79.22
69171;BME280;56279;47.902;12.308;2022-09-28T10:48:22;93725.69;;;14.03;79.13
69171;BME280;56279;47.902;12.308;2022-09-28T10:50:25;93725.50;;;13.96;78.40
69171;BME280;56279;47.902;12.308;2022-09-28T10:52:42;93734.16;;;13.80;78.45
69171;BME280;56279;47.902;12.308;2022-09-28T10:54:55;93735.31;;;13.67;78.35
69171;BME280;56279;47.902;12.308;2022-09-28T10:56:58;93733.00;;;13.54;78.16
69171;BME280;56279;47.902;12.308;2022-09-28T11:01:40;93744.38;;;13.42;79.16
69171;BME280;56279;47.902;12.308;2022-09-28T11:03:54;93738.09;;;13.35;78.99
69171;BME280;56279;47.902;12.308;2022-09-28T11:06:00;93738.09;;;13.35;79.30
69171;BME280;56279;47.902;12.308;2022-09-28T11:08:05;93741.63;;;13.39;79.38
69171;BME280;56279;47.902;12.308;2022-09-28T11:10:27;93743.28;;;13.43;79.54
69171;BME280;56279;47.902;12.308;2022-09-28T11:12:42;93745.28;;;13.46;79.18
69171;BME280;56279;47.902;12.308;2022-09-28T11:14:45;93754.66;;;13.44;79.10
69171;BME280;56279;47.902;12.308;2022-09-28T11:21:26;93750.34;;;13.15;78.36
69171;BME280;56279;47.902;12.308;2022-09-28T11:23:33;93746.50;;;13.12;78.55
69171;BME280;56279;47.902;12.308;2022-09-28T11:26:08;93752.56;;;13.13;78.68
69171;BME280;56279;47.902;12.308;2022-09-28T11:28:21;93748.13;;;13.17;79.18
69171;BME280;56279;47.902;12.308;2022-09-28T11:30:37;93748.34;;;13.12;79.23
69171;BME280;56279;47.902;12.308;2022-09-28T11:33:14;93753.41;;;13.05;79.95
69171;BME280;56279;47.902;12.308;2022-09-28T11:35:55;93768.94;;;12.82;79.96
69171;BME280;56279;47.902;12.308;2022-09-28T11:45:36;93774.97;;;12.38;81.47
69171;BME280;56279;47.902;12.308;2022-09-28T11:47:50;93773.69;;;12.23;81.50
69171;BME280;56279;47.902;12.308;2022-09-28T11:52:24;93786.41;;;12.30;81.42
69171;BME280;56279;47.902;12.308;2022-09-28T11:54:53;93790.88;;;12.17;81.41
69171;BME280;56279;47.902;12.308;2022-09-28T11:56:59;93793.13;;;12.07;81.73
69171;BME280;56279;47.902;12.308;2022-09-28T12:03:55;93804.84;;;11.76;81.80
69171;BME280;56279;47.902;12.308;2022-09-28T12:06:03;93800.66;;;11.75;81.58
69171;BME280;56279;47.902;12.308;2022-09-28T12:08:21;93795.69;;;11.74;81.61
69171;BME280;56279;47.902;12.308;2022-09-28T12:13:22;93788.94;;;11.85;81.16
69171;BME280;56279;47.902;12.308;2022-09-28T12:15:47;93793.72;;;11.92;80.97
69171;BME280;56279;47.902;12.308;2022-09-28T12:18:01;93791.84;;;11.92;80.59
69171;BME280;56279;47.902;12.308;2022-09-28T12:22:36;93786.34;;;11.97;80.77
69171;BME280;56279;47.902;12.308;2022-09-28T12:24:46;93787.09;;;12.06;80.74
69171;BME280;56279;47.902;12.308;2022-09-28T12:27:20;93789.97;;;12.13;80.42
69171;BME280;56279;47.902;12.308;2022-09-28T12:34:35;93785.72;;;12.00;80.27
69171;BME280;56279;47.902;12.308;2022-09-28T12:37:02;93785.72;;;12.00;80.57
69171;BME280;56279;47.902;12.308;2022-09-28T12:41:29;93782.31;;;12.20;80.20
69171;BME280;56279;47.902;12.308;2022-09-28T12:46:12;93794.47;;;12.33;79.72
69171;BME280;56279;47.902;12.308;2022-09-28T12:51:20;93808.84;;;12.44;79.25
69171;BME280;56279;47.902;12.308;2022-09-28T12:56:06;93819.75;;;12.43;79.32
69171;BME280;56279;47.902;12.308;2022-09-28T13:00:50;93822.09;;;12.03;79.90
69171;BME280;56279;47.902;12.308;2022-09-28T13:10:32;93816.25;;;11.68;81.06
69171;BME280;56279;47.902;12.308;2022-09-28T13:19:36;93807.16;;;11.49;81.55
69171;BME280;56279;47.902;12.308;2022-09-28T13:21:48;93809.00;;;11.57;81.67
69171;BME280;56279;47.902;12.308;2022-09-28T13:23:54;93818.91;;;11.60;81.52
69171;BME280;56279;47.902;12.308;2022-09-28T13:26:19;93817.81;;;11.61;81.45
69171;BME280;56279;47.902;12.308;2022-09-28T13:28:24;93811.63;;;11.57;81.12
69171;BME280;56279;47.902;12.308;2022-09-28T13:30:26;93808.25;;;11.48;81.15
69171;BME280;56279;47.902;12.308;2022-09-28T13:32:29;93810.75;;;11.44;81.41
69171;BME280;56279;47.902;12.308;2022-09-28T13:34:32;93815.06;;;11.49;81.44
69171;BME280;56279;47.902;12.308;2022-09-28T13:36:36;93807.75;;;11.54;81.79